Hlavní strana
METAR-TAF:

METAR-TAF

Letiště :

Foz do Iguaçu, Paraná, Brazílie

zeměpisná šířka: 25-31S, zeměpisná délka: 054-35W, výška: 180 m

Aktuální stav počasí

Zpráva byla vytvořena před 1 hodinou a 5 minutami, v 04:00 UTC
Východojihovýchodní vítr 3 kt
Teplota 23°C
Vlhkost vzduchu 83%
Tlak 1012 hPa
Viditelnost 10 km a více
Žádná oblačnost pod 1500 m, nevyskytují se cumulonimby.

METAR: SBFI 200400Z 12003KT CAVOK 23/20 Q1012

Čas: 03:05 (05:05 UTC)

Předpověď počasí

Zpráva byla vytvořena před 6 hodinami a 35 minutami, v 22:30 UTC
Předpověď platná od 20 v 00 UTC do 20 v 24 UTC
Jihovýchodní vítr 5 kt
Viditelnost 10 km a více
Skoro jasno ve výšce 3000 ft

TAF: SBFI 192230Z 2000/2024 13005KT 9999 FEW030 TN21/2008Z TX36/2018Z RMK PEB

Stav a předpovědi počasí z více než 4 000 letišť (zprávy METAR a TAF).

Červené a žluté tečky na mapě představují dostupné meteorologické stanice.

Když kurzor umístíte na tečku, zobrazí se název stanice.

Pak kliknutím zobrazíte stav a předpověď počasí.

Chcete-li změnit mapu, kliknutím na zelené tlačítko se znaménkem +mapu přiblížíte, kliknutím na zelené tlačítko se znaménkem – mapu oddálíte a kliknutím na zelené šipky přejdete na sousední mapy.


METAR-TAF: